sensor_id;sensor_type;location;lat;lon;timestamp;P1;durP1;ratioP1;P2;durP2;ratioP2
12585;SDS011;6358;50.760;0.282;2022-08-25T00:02:01;1.10;;;1.10;;
12585;SDS011;6358;50.760;0.282;2022-08-25T00:04:24;1.13;;;1.02;;
12585;SDS011;6358;50.760;0.282;2022-08-25T00:06:50;1.00;;;1.00;;
12585;SDS011;6358;50.760;0.282;2022-08-25T00:09:20;1.20;;;1.10;;
12585;SDS011;6358;50.760;0.282;2022-08-25T00:11:47;0.98;;;0.98;;
12585;SDS011;6358;50.760;0.282;2022-08-25T00:14:18;1.33;;;1.10;;
12585;SDS011;6358;50.760;0.282;2022-08-25T00:16:44;1.30;;;1.23;;
12585;SDS011;6358;50.760;0.282;2022-08-25T00:19:12;1.20;;;1.10;;
12585;SDS011;6358;50.760;0.282;2022-08-25T00:21:39;1.20;;;1.10;;
12585;SDS011;6358;50.760;0.282;2022-08-25T00:24:06;1.40;;;1.30;;
12585;SDS011;6358;50.760;0.282;2022-08-25T00:26:33;1.30;;;1.20;;
12585;SDS011;6358;50.760;0.282;2022-08-25T00:28:59;1.45;;;1.17;;
12585;SDS011;6358;50.760;0.282;2022-08-25T00:31:25;1.17;;;1.08;;
12585;SDS011;6358;50.760;0.282;2022-08-25T00:33:51;1.02;;;1.02;;
12585;SDS011;6358;50.760;0.282;2022-08-25T00:36:19;1.00;;;1.00;;
12585;SDS011;6358;50.760;0.282;2022-08-25T00:38:46;1.23;;;1.13;;
12585;SDS011;6358;50.760;0.282;2022-08-25T00:41:15;1.40;;;1.30;;
12585;SDS011;6358;50.760;0.282;2022-08-25T00:43:53;1.30;;;1.20;;
12585;SDS011;6358;50.760;0.282;2022-08-25T00:46:21;1.00;;;1.00;;
12585;SDS011;6358;50.760;0.282;2022-08-25T00:49:31;1.65;;;1.00;;
12585;SDS011;6358;50.760;0.282;2022-08-25T00:51:38;1.70;;;1.00;;
12585;SDS011;6358;50.760;0.282;2022-08-25T00:54:07;1.35;;;0.90;;
12585;SDS011;6358;50.760;0.282;2022-08-25T00:56:35;1.20;;;1.10;;
12585;SDS011;6358;50.760;0.282;2022-08-25T00:59:02;0.90;;;0.90;;
12585;SDS011;6358;50.760;0.282;2022-08-25T01:01:28;1.02;;;1.00;;
12585;SDS011;6358;50.760;0.282;2022-08-25T01:03:55;0.90;;;0.90;;
12585;SDS011;6358;50.760;0.282;2022-08-25T01:06:21;1.42;;;0.90;;
12585;SDS011;6358;50.760;0.282;2022-08-25T01:08:48;0.90;;;0.90;;
12585;SDS011;6358;50.760;0.282;2022-08-25T01:11:14;1.15;;;1.05;;
12585;SDS011;6358;50.760;0.282;2022-08-25T01:13:43;0.90;;;0.90;;
12585;SDS011;6358;50.760;0.282;2022-08-25T01:16:11;0.93;;;0.93;;
12585;SDS011;6358;50.760;0.282;2022-08-25T01:18:46;0.95;;;0.95;;
12585;SDS011;6358;50.760;0.282;2022-08-25T01:21:12;1.00;;;1.00;;
12585;SDS011;6358;50.760;0.282;2022-08-25T01:23:38;1.05;;;1.05;;
12585;SDS011;6358;50.760;0.282;2022-08-25T01:28:35;1.20;;;1.10;;
12585;SDS011;6358;50.760;0.282;2022-08-25T01:31:02;1.10;;;1.00;;
12585;SDS011;6358;50.760;0.282;2022-08-25T01:33:29;1.30;;;1.20;;
12585;SDS011;6358;50.760;0.282;2022-08-25T01:35:55;4.75;;;1.63;;
12585;SDS011;6358;50.760;0.282;2022-08-25T01:38:21;1.20;;;1.10;;
12585;SDS011;6358;50.760;0.282;2022-08-25T01:40:47;1.15;;;1.10;;
12585;SDS011;6358;50.760;0.282;2022-08-25T01:45:41;1.45;;;1.20;;
12585;SDS011;6358;50.760;0.282;2022-08-25T01:48:08;1.20;;;1.20;;
12585;SDS011;6358;50.760;0.282;2022-08-25T01:50:35;1.50;;;1.30;;
12585;SDS011;6358;50.760;0.282;2022-08-25T01:53:11;1.30;;;1.30;;
12585;SDS011;6358;50.760;0.282;2022-08-25T01:55:39;1.25;;;1.15;;
12585;SDS011;6358;50.760;0.282;2022-08-25T01:58:30;1.20;;;1.20;;
12585;SDS011;6358;50.760;0.282;2022-08-25T02:00:57;1.25;;;1.15;;
12585;SDS011;6358;50.760;0.282;2022-08-25T02:03:24;1.45;;;1.30;;
12585;SDS011;6358;50.760;0.282;2022-08-25T02:05:51;2.05;;;1.42;;
12585;SDS011;6358;50.760;0.282;2022-08-25T02:08:17;1.77;;;1.20;;
12585;SDS011;6358;50.760;0.282;2022-08-25T02:10:44;1.65;;;1.40;;
12585;SDS011;6358;50.760;0.282;2022-08-25T02:13:10;1.70;;;1.60;;
12585;SDS011;6358;50.760;0.282;2022-08-25T02:15:40;1.30;;;1.30;;
12585;SDS011;6358;50.760;0.282;2022-08-25T02:18:08;2.13;;;1.60;;
12585;SDS011;6358;50.760;0.282;2022-08-25T02:20:34;1.80;;;1.70;;
12585;SDS011;6358;50.760;0.282;2022-08-25T02:23:01;1.65;;;1.55;;
12585;SDS011;6358;50.760;0.282;2022-08-25T02:25:27;1.60;;;1.50;;
12585;SDS011;6358;50.760;0.282;2022-08-25T02:27:53;1.42;;;1.33;;
12585;SDS011;6358;50.760;0.282;2022-08-25T02:30:19;3.53;;;1.63;;
12585;SDS011;6358;50.760;0.282;2022-08-25T02:32:45;1.60;;;1.50;;
12585;SDS011;6358;50.760;0.282;2022-08-25T02:35:11;1.60;;;1.50;;
12585;SDS011;6358;50.760;0.282;2022-08-25T02:37:37;1.63;;;1.52;;
12585;SDS011;6358;50.760;0.282;2022-08-25T02:40:04;1.45;;;1.35;;
12585;SDS011;6358;50.760;0.282;2022-08-25T02:42:30;1.88;;;1.70;;
12585;SDS011;6358;50.760;0.282;2022-08-25T02:44:57;1.67;;;1.58;;
12585;SDS011;6358;50.760;0.282;2022-08-25T02:47:23;1.52;;;1.42;;
12585;SDS011;6358;50.760;0.282;2022-08-25T02:49:50;2.83;;;1.67;;
12585;SDS011;6358;50.760;0.282;2022-08-25T02:52:16;2.15;;;1.77;;
12585;SDS011;6358;50.760;0.282;2022-08-25T02:54:43;1.50;;;1.40;;
12585;SDS011;6358;50.760;0.282;2022-08-25T02:57:09;1.58;;;1.48;;
12585;SDS011;6358;50.760;0.282;2022-08-25T02:59:39;1.60;;;1.50;;
12585;SDS011;6358;50.760;0.282;2022-08-25T03:02:06;1.65;;;1.55;;
12585;SDS011;6358;50.760;0.282;2022-08-25T03:04:32;1.83;;;1.55;;
12585;SDS011;6358;50.760;0.282;2022-08-25T03:06:58;1.50;;;1.40;;
12585;SDS011;6358;50.760;0.282;2022-08-25T03:09:25;1.70;;;1.60;;
12585;SDS011;6358;50.760;0.282;2022-08-25T03:11:51;1.60;;;1.30;;
12585;SDS011;6358;50.760;0.282;2022-08-25T03:14:18;1.52;;;1.42;;
12585;SDS011;6358;50.760;0.282;2022-08-25T03:16:44;1.70;;;1.58;;
12585;SDS011;6358;50.760;0.282;2022-08-25T03:19:10;2.15;;;1.40;;
12585;SDS011;6358;50.760;0.282;2022-08-25T03:21:36;1.88;;;1.40;;
12585;SDS011;6358;50.760;0.282;2022-08-25T03:24:03;1.50;;;1.40;;
12585;SDS011;6358;50.760;0.282;2022-08-25T03:26:30;1.70;;;1.60;;
12585;SDS011;6358;50.760;0.282;2022-08-25T03:29:14;2.00;;;1.40;;
12585;SDS011;6358;50.760;0.282;2022-08-25T03:31:41;1.58;;;1.48;;
12585;SDS011;6358;50.760;0.282;2022-08-25T03:34:09;1.40;;;1.30;;
12585;SDS011;6358;50.760;0.282;2022-08-25T03:36:35;1.50;;;1.40;;
12585;SDS011;6358;50.760;0.282;2022-08-25T03:39:01;1.60;;;1.50;;
12585;SDS011;6358;50.760;0.282;2022-08-25T03:41:28;1.60;;;1.50;;
12585;SDS011;6358;50.760;0.282;2022-08-25T03:43:56;1.60;;;1.50;;
12585;SDS011;6358;50.760;0.282;2022-08-25T03:46:24;1.80;;;1.58;;
12585;SDS011;6358;50.760;0.282;2022-08-25T03:48:51;1.75;;;1.40;;
12585;SDS011;6358;50.760;0.282;2022-08-25T03:51:27;1.63;;;1.52;;
12585;SDS011;6358;50.760;0.282;2022-08-25T03:53:54;1.70;;;1.40;;
12585;SDS011;6358;50.760;0.282;2022-08-25T03:56:21;1.73;;;1.55;;
12585;SDS011;6358;50.760;0.282;2022-08-25T03:58:47;1.50;;;1.40;;
12585;SDS011;6358;50.760;0.282;2022-08-25T04:01:13;1.40;;;1.30;;
12585;SDS011;6358;50.760;0.282;2022-08-25T04:03:39;1.65;;;1.50;;
12585;SDS011;6358;50.760;0.282;2022-08-25T04:06:06;1.65;;;1.55;;
12585;SDS011;6358;50.760;0.282;2022-08-25T04:08:32;1.77;;;1.50;;
12585;SDS011;6358;50.760;0.282;2022-08-25T04:11:03;1.50;;;1.40;;
12585;SDS011;6358;50.760;0.282;2022-08-25T04:13:29;1.50;;;1.40;;
12585;SDS011;6358;50.760;0.282;2022-08-25T04:15:56;1.95;;;1.40;;
12585;SDS011;6358;50.760;0.282;2022-08-25T04:18:22;1.60;;;1.40;;
12585;SDS011;6358;50.760;0.282;2022-08-25T04:20:48;1.10;;;1.10;;
12585;SDS011;6358;50.760;0.282;2022-08-25T04:23:14;1.48;;;1.38;;
12585;SDS011;6358;50.760;0.282;2022-08-25T04:25:40;2.47;;;1.40;;
12585;SDS011;6358;50.760;0.282;2022-08-25T04:28:08;1.65;;;1.30;;
12585;SDS011;6358;50.760;0.282;2022-08-25T04:30:34;1.48;;;1.38;;
12585;SDS011;6358;50.760;0.282;2022-08-25T04:33:00;2.30;;;1.20;;
12585;SDS011;6358;50.760;0.282;2022-08-25T04:35:26;2.58;;;1.20;;
12585;SDS011;6358;50.760;0.282;2022-08-25T04:37:52;2.33;;;1.38;;
12585;SDS011;6358;50.760;0.282;2022-08-25T04:40:18;1.58;;;1.23;;
12585;SDS011;6358;50.760;0.282;2022-08-25T04:42:45;1.10;;;0.88;;
12585;SDS011;6358;50.760;0.282;2022-08-25T04:45:11;0.98;;;0.90;;
12585;SDS011;6358;50.760;0.282;2022-08-25T04:47:37;2.15;;;0.95;;
12585;SDS011;6358;50.760;0.282;2022-08-25T04:50:05;0.98;;;0.88;;
12585;SDS011;6358;50.760;0.282;2022-08-25T04:52:31;0.75;;;0.75;;
12585;SDS011;6358;50.760;0.282;2022-08-25T04:54:57;1.77;;;0.82;;
12585;SDS011;6358;50.760;0.282;2022-08-25T04:57:24;1.17;;;0.90;;
12585;SDS011;6358;50.760;0.282;2022-08-25T04:59:50;0.77;;;0.75;;
12585;SDS011;6358;50.760;0.282;2022-08-25T05:02:17;1.05;;;0.80;;
12585;SDS011;6358;50.760;0.282;2022-08-25T05:04:43;1.25;;;0.73;;
12585;SDS011;6358;50.760;0.282;2022-08-25T05:07:09;0.60;;;0.60;;
12585;SDS011;6358;50.760;0.282;2022-08-25T05:09:35;1.33;;;0.77;;
12585;SDS011;6358;50.760;0.282;2022-08-25T05:12:02;1.65;;;0.70;;
12585;SDS011;6358;50.760;0.282;2022-08-25T05:14:29;0.95;;;0.50;;
12585;SDS011;6358;50.760;0.282;2022-08-25T05:16:55;1.63;;;0.85;;
12585;SDS011;6358;50.760;0.282;2022-08-25T05:19:22;0.77;;;0.50;;
12585;SDS011;6358;50.760;0.282;2022-08-25T05:21:48;3.00;;;0.90;;
12585;SDS011;6358;50.760;0.282;2022-08-25T05:24:15;0.95;;;0.60;;
12585;SDS011;6358;50.760;0.282;2022-08-25T05:26:41;0.60;;;0.60;;
12585;SDS011;6358;50.760;0.282;2022-08-25T05:29:07;1.35;;;0.30;;
12585;SDS011;6358;50.760;0.282;2022-08-25T05:31:35;0.55;;;0.52;;
12585;SDS011;6358;50.760;0.282;2022-08-25T05:34:05;0.47;;;0.47;;
12585;SDS011;6358;50.760;0.282;2022-08-25T05:36:32;0.28;;;0.28;;
12585;SDS011;6358;50.760;0.282;2022-08-25T05:38:58;0.40;;;0.40;;
12585;SDS011;6358;50.760;0.282;2022-08-25T05:41:26;0.60;;;0.40;;
12585;SDS011;6358;50.760;0.282;2022-08-25T05:43:53;0.95;;;0.50;;
12585;SDS011;6358;50.760;0.282;2022-08-25T05:46:19;0.50;;;0.50;;
12585;SDS011;6358;50.760;0.282;2022-08-25T05:48:46;0.73;;;0.40;;
12585;SDS011;6358;50.760;0.282;2022-08-25T05:51:12;0.45;;;0.30;;
12585;SDS011;6358;50.760;0.282;2022-08-25T05:53:40;0.75;;;0.50;;
12585;SDS011;6358;50.760;0.282;2022-08-25T05:56:07;0.43;;;0.32;;
12585;SDS011;6358;50.760;0.282;2022-08-25T05:58:34;0.30;;;0.30;;
12585;SDS011;6358;50.760;0.282;2022-08-25T06:01:00;0.30;;;0.30;;
12585;SDS011;6358;50.760;0.282;2022-08-25T06:03:46;3.70;;;0.70;;
12585;SDS011;6358;50.760;0.282;2022-08-25T06:06:13;1.88;;;0.55;;
12585;SDS011;6358;50.760;0.282;2022-08-25T06:08:40;0.40;;;0.40;;
12585;SDS011;6358;50.760;0.282;2022-08-25T06:11:06;0.68;;;0.50;;
12585;SDS011;6358;50.760;0.282;2022-08-25T06:13:32;0.50;;;0.50;;
12585;SDS011;6358;50.760;0.282;2022-08-25T06:15:59;0.80;;;0.50;;
12585;SDS011;6358;50.760;0.282;2022-08-25T06:18:25;0.57;;;0.50;;
12585;SDS011;6358;50.760;0.282;2022-08-25T06:20:51;1.55;;;0.52;;
12585;SDS011;6358;50.760;0.282;2022-08-25T06:23:18;3.10;;;0.80;;
12585;SDS011;6358;50.760;0.282;2022-08-25T06:25:50;0.85;;;0.63;;
12585;SDS011;6358;50.760;0.282;2022-08-25T06:28:17;0.47;;;0.47;;
12585;SDS011;6358;50.760;0.282;2022-08-25T06:30:43;0.30;;;0.30;;
12585;SDS011;6358;50.760;0.282;2022-08-25T06:33:09;0.45;;;0.45;;
12585;SDS011;6358;50.760;0.282;2022-08-25T06:35:35;1.15;;;0.77;;
12585;SDS011;6358;50.760;0.282;2022-08-25T06:38:02;0.60;;;0.60;;
12585;SDS011;6358;50.760;0.282;2022-08-25T06:40:28;1.77;;;0.80;;
12585;SDS011;6358;50.760;0.282;2022-08-25T06:42:54;0.63;;;0.50;;
12585;SDS011;6358;50.760;0.282;2022-08-25T06:45:20;0.40;;;0.40;;
12585;SDS011;6358;50.760;0.282;2022-08-25T06:47:46;0.40;;;0.40;;
12585;SDS011;6358;50.760;0.282;2022-08-25T06:50:13;1.45;;;0.55;;
12585;SDS011;6358;50.760;0.282;2022-08-25T06:52:39;0.90;;;0.63;;
12585;SDS011;6358;50.760;0.282;2022-08-25T06:55:07;1.40;;;0.68;;
12585;SDS011;6358;50.760;0.282;2022-08-25T06:57:33;0.90;;;0.50;;
12585;SDS011;6358;50.760;0.282;2022-08-25T07:00:00;1.20;;;0.55;;
12585;SDS011;6358;50.760;0.282;2022-08-25T07:02:26;0.32;;;0.30;;
12585;SDS011;6358;50.760;0.282;2022-08-25T07:04:52;0.98;;;0.60;;
12585;SDS011;6358;50.760;0.282;2022-08-25T07:07:18;1.48;;;0.40;;
12585;SDS011;6358;50.760;0.282;2022-08-25T07:09:45;0.93;;;0.50;;
12585;SDS011;6358;50.760;0.282;2022-08-25T07:12:11;1.13;;;0.77;;
12585;SDS011;6358;50.760;0.282;2022-08-25T07:14:37;0.60;;;0.60;;
12585;SDS011;6358;50.760;0.282;2022-08-25T07:17:04;0.50;;;0.50;;
12585;SDS011;6358;50.760;0.282;2022-08-25T07:19:30;7.47;;;6.78;;
12585;SDS011;6358;50.760;0.282;2022-08-25T07:21:56;28.45;;;25.98;;
12585;SDS011;6358;50.760;0.282;2022-08-25T07:24:22;25.83;;;23.40;;
12585;SDS011;6358;50.760;0.282;2022-08-25T07:26:48;15.98;;;14.45;;
12585;SDS011;6358;50.760;0.282;2022-08-25T07:29:19;10.65;;;9.75;;
12585;SDS011;6358;50.760;0.282;2022-08-25T07:31:46;9.55;;;8.77;;
12585;SDS011;6358;50.760;0.282;2022-08-25T07:34:13;13.73;;;12.57;;
12585;SDS011;6358;50.760;0.282;2022-08-25T07:36:58;8.15;;;7.28;;
12585;SDS011;6358;50.760;0.282;2022-08-25T07:39:24;7.30;;;6.60;;
12585;SDS011;6358;50.760;0.282;2022-08-25T07:41:51;4.82;;;4.05;;
12585;SDS011;6358;50.760;0.282;2022-08-25T07:44:17;4.10;;;3.80;;
12585;SDS011;6358;50.760;0.282;2022-08-25T07:46:44;2.90;;;2.70;;
12585;SDS011;6358;50.760;0.282;2022-08-25T07:49:10;2.00;;;1.90;;
12585;SDS011;6358;50.760;0.282;2022-08-25T07:51:36;2.53;;;2.20;;
12585;SDS011;6358;50.760;0.282;2022-08-25T07:54:03;1.90;;;1.70;;
12585;SDS011;6358;50.760;0.282;2022-08-25T07:56:29;1.63;;;1.52;;
12585;SDS011;6358;50.760;0.282;2022-08-25T07:58:56;1.60;;;1.50;;
12585;SDS011;6358;50.760;0.282;2022-08-25T08:01:22;1.45;;;1.35;;
12585;SDS011;6358;50.760;0.282;2022-08-25T08:03:49;1.90;;;1.33;;
12585;SDS011;6358;50.760;0.282;2022-08-25T08:06:19;1.30;;;1.20;;
12585;SDS011;6358;50.760;0.282;2022-08-25T08:08:46;1.50;;;1.10;;
12585;SDS011;6358;50.760;0.282;2022-08-25T08:11:14;1.17;;;1.08;;
12585;SDS011;6358;50.760;0.282;2022-08-25T08:13:41;0.80;;;0.70;;
12585;SDS011;6358;50.760;0.282;2022-08-25T08:16:10;0.70;;;0.70;;
12585;SDS011;6358;50.760;0.282;2022-08-25T08:18:37;1.17;;;0.90;;
12585;SDS011;6358;50.760;0.282;2022-08-25T08:21:03;1.20;;;0.90;;
12585;SDS011;6358;50.760;0.282;2022-08-25T08:23:29;1.10;;;0.82;;
12585;SDS011;6358;50.760;0.282;2022-08-25T08:25:55;0.77;;;0.77;;
12585;SDS011;6358;50.760;0.282;2022-08-25T08:28:21;0.65;;;0.65;;
12585;SDS011;6358;50.760;0.282;2022-08-25T08:30:51;0.65;;;0.57;;
12585;SDS011;6358;50.760;0.282;2022-08-25T08:33:17;0.52;;;0.52;;
12585;SDS011;6358;50.760;0.282;2022-08-25T08:35:44;0.50;;;0.50;;
12585;SDS011;6358;50.760;0.282;2022-08-25T08:38:10;0.63;;;0.50;;
12585;SDS011;6358;50.760;0.282;2022-08-25T08:40:39;0.65;;;0.60;;
12585;SDS011;6358;50.760;0.282;2022-08-25T08:43:09;0.80;;;0.47;;
12585;SDS011;6358;50.760;0.282;2022-08-25T08:45:42;0.75;;;0.60;;
12585;SDS011;6358;50.760;0.282;2022-08-25T08:50:42;0.60;;;0.30;;
12585;SDS011;6358;50.760;0.282;2022-08-25T08:55:45;1.88;;;0.70;;
12585;SDS011;6358;50.760;0.282;2022-08-25T08:58:18;0.88;;;0.55;;
12585;SDS011;6358;50.760;0.282;2022-08-25T09:00:46;0.50;;;0.50;;
12585;SDS011;6358;50.760;0.282;2022-08-25T09:04:17;0.35;;;0.32;;
12585;SDS011;6358;50.760;0.282;2022-08-25T09:06:12;0.52;;;0.40;;
12585;SDS011;6358;50.760;0.282;2022-08-25T09:08:41;0.38;;;0.38;;
12585;SDS011;6358;50.760;0.282;2022-08-25T09:16:09;0.88;;;0.50;;
12585;SDS011;6358;50.760;0.282;2022-08-25T09:24:09;0.50;;;0.50;;
12585;SDS011;6358;50.760;0.282;2022-08-25T09:26:41;0.40;;;0.40;;
12585;SDS011;6358;50.760;0.282;2022-08-25T09:29:13;1.27;;;0.50;;
12585;SDS011;6358;50.760;0.282;2022-08-25T09:31:40;0.50;;;0.50;;
12585;SDS011;6358;50.760;0.282;2022-08-25T09:34:10;0.60;;;0.50;;
12585;SDS011;6358;50.760;0.282;2022-08-25T09:36:36;0.77;;;0.50;;
12585;SDS011;6358;50.760;0.282;2022-08-25T09:39:03;0.50;;;0.50;;
12585;SDS011;6358;50.760;0.282;2022-08-25T09:41:50;0.50;;;0.50;;
12585;SDS011;6358;50.760;0.282;2022-08-25T09:46:53;1.40;;;0.60;;
12585;SDS011;6358;50.760;0.282;2022-08-25T09:49:19;1.27;;;0.60;;
12585;SDS011;6358;50.760;0.282;2022-08-25T09:51:45;0.60;;;0.40;;
12585;SDS011;6358;50.760;0.282;2022-08-25T09:56:53;0.55;;;0.52;;
12585;SDS011;6358;50.760;0.282;2022-08-25T09:59:21;0.65;;;0.65;;
12585;SDS011;6358;50.760;0.282;2022-08-25T10:01:54;0.63;;;0.63;;
12585;SDS011;6358;50.760;0.282;2022-08-25T10:04:37;0.70;;;0.70;;
12585;SDS011;6358;50.760;0.282;2022-08-25T10:07:18;0.82;;;0.73;;
12585;SDS011;6358;50.760;0.282;2022-08-25T10:09:50;0.40;;;0.40;;
12585;SDS011;6358;50.760;0.282;2022-08-25T10:12:21;0.60;;;0.60;;
12585;SDS011;6358;50.760;0.282;2022-08-25T10:14:49;0.88;;;0.60;;
12585;SDS011;6358;50.760;0.282;2022-08-25T10:19:50;1.05;;;0.60;;
12585;SDS011;6358;50.760;0.282;2022-08-25T10:22:21;0.70;;;0.70;;
12585;SDS011;6358;50.760;0.282;2022-08-25T10:24:49;0.80;;;0.80;;
12585;SDS011;6358;50.760;0.282;2022-08-25T10:27:21;0.70;;;0.70;;
12585;SDS011;6358;50.760;0.282;2022-08-25T10:35:28;0.85;;;0.85;;
12585;SDS011;6358;50.760;0.282;2022-08-25T10:37:59;0.70;;;0.70;;
12585;SDS011;6358;50.760;0.282;2022-08-25T10:40:45;1.38;;;0.60;;
12585;SDS011;6358;50.760;0.282;2022-08-25T10:46:00;1.33;;;0.52;;
12585;SDS011;6358;50.760;0.282;2022-08-25T10:48:36;0.70;;;0.60;;
12585;SDS011;6358;50.760;0.282;2022-08-25T10:56:33;0.90;;;0.80;;
12585;SDS011;6358;50.760;0.282;2022-08-25T11:02:01;0.82;;;0.73;;
12585;SDS011;6358;50.760;0.282;2022-08-25T11:04:52;0.50;;;0.50;;
12585;SDS011;6358;50.760;0.282;2022-08-25T11:09:47;1.65;;;1.30;;
12585;SDS011;6358;50.760;0.282;2022-08-25T11:12:20;1.70;;;1.60;;
12585;SDS011;6358;50.760;0.282;2022-08-25T11:14:51;2.60;;;1.50;;
12585;SDS011;6358;50.760;0.282;2022-08-25T11:17:29;1.75;;;1.45;;
12585;SDS011;6358;50.760;0.282;2022-08-25T11:20:03;1.70;;;1.60;;
12585;SDS011;6358;50.760;0.282;2022-08-25T11:22:41;1.60;;;1.50;;
12585;SDS011;6358;50.760;0.282;2022-08-25T11:30:26;1.42;;;1.30;;
12585;SDS011;6358;50.760;0.282;2022-08-25T11:32:53;1.25;;;1.00;;
12585;SDS011;6358;50.760;0.282;2022-08-25T11:35:27;1.40;;;1.27;;
12585;SDS011;6358;50.760;0.282;2022-08-25T11:38:04;1.20;;;1.10;;
12585;SDS011;6358;50.760;0.282;2022-08-25T11:40:37;1.80;;;1.20;;
12585;SDS011;6358;50.760;0.282;2022-08-25T11:48:46;1.00;;;0.90;;
12585;SDS011;6358;50.760;0.282;2022-08-25T11:56:49;2.13;;;1.13;;
12585;SDS011;6358;50.760;0.282;2022-08-25T11:59:46;1.70;;;1.00;;
12585;SDS011;6358;50.760;0.282;2022-08-25T12:02:02;1.00;;;0.90;;
12585;SDS011;6358;50.760;0.282;2022-08-25T12:04:34;1.15;;;0.80;;
12585;SDS011;6358;50.760;0.282;2022-08-25T12:17:41;1.75;;;1.40;;
12585;SDS011;6358;50.760;0.282;2022-08-25T12:20:08;1.52;;;1.40;;
12585;SDS011;6358;50.760;0.282;2022-08-25T12:25:08;2.20;;;2.00;;
12585;SDS011;6358;50.760;0.282;2022-08-25T12:27:58;2.05;;;1.95;;
12585;SDS011;6358;50.760;0.282;2022-08-25T12:36:24;0.95;;;0.95;;
12585;SDS011;6358;50.760;0.282;2022-08-25T12:38:36;0.73;;;0.70;;
12585;SDS011;6358;50.760;0.282;2022-08-25T12:41:14;0.90;;;0.90;;
12585;SDS011;6358;50.760;0.282;2022-08-25T12:43:43;0.80;;;0.80;;
12585;SDS011;6358;50.760;0.282;2022-08-25T12:51:39;0.75;;;0.70;;
12585;SDS011;6358;50.760;0.282;2022-08-25T12:56:40;0.90;;;0.70;;
12585;SDS011;6358;50.760;0.282;2022-08-25T12:59:49;0.70;;;0.63;;
12585;SDS011;6358;50.760;0.282;2022-08-25T13:02:00;0.50;;;0.50;;
12585;SDS011;6358;50.760;0.282;2022-08-25T13:12:11;0.75;;;0.52;;
12585;SDS011;6358;50.760;0.282;2022-08-25T13:14:41;0.57;;;0.57;;
12585;SDS011;6358;50.760;0.282;2022-08-25T13:17:07;0.68;;;0.60;;
12585;SDS011;6358;50.760;0.282;2022-08-25T13:19:34;0.57;;;0.57;;
12585;SDS011;6358;50.760;0.282;2022-08-25T13:22:02;0.60;;;0.60;;
12585;SDS011;6358;50.760;0.282;2022-08-25T13:24:30;0.52;;;0.52;;
12585;SDS011;6358;50.760;0.282;2022-08-25T13:27:04;0.70;;;0.70;;
12585;SDS011;6358;50.760;0.282;2022-08-25T13:29:32;0.90;;;0.90;;
12585;SDS011;6358;50.760;0.282;2022-08-25T13:31:59;0.90;;;0.90;;
12585;SDS011;6358;50.760;0.282;2022-08-25T13:34:27;0.77;;;0.77;;
12585;SDS011;6358;50.760;0.282;2022-08-25T13:36:54;1.17;;;0.70;;
12585;SDS011;6358;50.760;0.282;2022-08-25T13:39:39;2.42;;;0.90;;
12585;SDS011;6358;50.760;0.282;2022-08-25T13:42:10;0.95;;;0.95;;
12585;SDS011;6358;50.760;0.282;2022-08-25T13:44:37;0.95;;;0.95;;
12585;SDS011;6358;50.760;0.282;2022-08-25T13:47:05;1.08;;;1.00;;
12585;SDS011;6358;50.760;0.282;2022-08-25T13:49:32;0.80;;;0.80;;
12585;SDS011;6358;50.760;0.282;2022-08-25T13:51:58;1.30;;;1.20;;
12585;SDS011;6358;50.760;0.282;2022-08-25T13:54:30;1.48;;;1.30;;
12585;SDS011;6358;50.760;0.282;2022-08-25T13:57:04;1.45;;;1.35;;
12585;SDS011;6358;50.760;0.282;2022-08-25T13:59:35;1.00;;;1.00;;
12585;SDS011;6358;50.760;0.282;2022-08-25T14:02:03;1.20;;;1.10;;
12585;SDS011;6358;50.760;0.282;2022-08-25T14:09:39;1.33;;;1.20;;
12585;SDS011;6358;50.760;0.282;2022-08-25T14:12:06;1.02;;;0.95;;
12585;SDS011;6358;50.760;0.282;2022-08-25T14:14:32;1.20;;;1.10;;
12585;SDS011;6358;50.760;0.282;2022-08-25T14:19:25;1.27;;;1.00;;
12585;SDS011;6358;50.760;0.282;2022-08-25T14:21:52;1.10;;;0.90;;
12585;SDS011;6358;50.760;0.282;2022-08-25T14:24:20;0.82;;;0.82;;
12585;SDS011;6358;50.760;0.282;2022-08-25T14:26:47;0.80;;;0.80;;
12585;SDS011;6358;50.760;0.282;2022-08-25T14:29:13;0.60;;;0.60;;
12585;SDS011;6358;50.760;0.282;2022-08-25T14:31:40;0.85;;;0.70;;
12585;SDS011;6358;50.760;0.282;2022-08-25T14:36:40;1.58;;;0.90;;
12585;SDS011;6358;50.760;0.282;2022-08-25T14:39:06;1.60;;;0.85;;
12585;SDS011;6358;50.760;0.282;2022-08-25T14:41:33;0.70;;;0.70;;
12585;SDS011;6358;50.760;0.282;2022-08-25T14:44:00;0.80;;;0.80;;
12585;SDS011;6358;50.760;0.282;2022-08-25T14:46:27;0.70;;;0.70;;
12585;SDS011;6358;50.760;0.282;2022-08-25T14:48:55;2.50;;;1.02;;
12585;SDS011;6358;50.760;0.282;2022-08-25T14:51:24;0.75;;;0.60;;
12585;SDS011;6358;50.760;0.282;2022-08-25T14:53:51;0.60;;;0.60;;
12585;SDS011;6358;50.760;0.282;2022-08-25T14:56:18;0.70;;;0.70;;
12585;SDS011;6358;50.760;0.282;2022-08-25T14:58:44;1.02;;;0.70;;
12585;SDS011;6358;50.760;0.282;2022-08-25T15:01:11;1.17;;;0.80;;
12585;SDS011;6358;50.760;0.282;2022-08-25T15:03:39;0.50;;;0.50;;
12585;SDS011;6358;50.760;0.282;2022-08-25T15:06:07;0.68;;;0.68;;
12585;SDS011;6358;50.760;0.282;2022-08-25T15:08:35;0.50;;;0.50;;
12585;SDS011;6358;50.760;0.282;2022-08-25T15:11:19;0.80;;;0.70;;
12585;SDS011;6358;50.760;0.282;2022-08-25T15:13:46;0.73;;;0.60;;
12585;SDS011;6358;50.760;0.282;2022-08-25T15:16:13;0.50;;;0.50;;
12585;SDS011;6358;50.760;0.282;2022-08-25T15:18:40;0.60;;;0.60;;
12585;SDS011;6358;50.760;0.282;2022-08-25T15:21:07;0.63;;;0.63;;
12585;SDS011;6358;50.760;0.282;2022-08-25T15:23:33;0.80;;;0.77;;
12585;SDS011;6358;50.760;0.282;2022-08-25T15:25:59;0.98;;;0.55;;
12585;SDS011;6358;50.760;0.282;2022-08-25T15:28:26;1.10;;;0.70;;
12585;SDS011;6358;50.760;0.282;2022-08-25T15:30:52;0.95;;;0.63;;
12585;SDS011;6358;50.760;0.282;2022-08-25T15:33:18;0.65;;;0.57;;
12585;SDS011;6358;50.760;0.282;2022-08-25T15:35:46;0.47;;;0.47;;
12585;SDS011;6358;50.760;0.282;2022-08-25T15:38:13;0.43;;;0.43;;
12585;SDS011;6358;50.760;0.282;2022-08-25T15:40:39;0.50;;;0.50;;
12585;SDS011;6358;50.760;0.282;2022-08-25T15:43:06;0.60;;;0.50;;
12585;SDS011;6358;50.760;0.282;2022-08-25T15:45:33;0.50;;;0.50;;
12585;SDS011;6358;50.760;0.282;2022-08-25T15:47:59;0.60;;;0.60;;
12585;SDS011;6358;50.760;0.282;2022-08-25T15:50:25;0.43;;;0.43;;
12585;SDS011;6358;50.760;0.282;2022-08-25T15:52:52;0.40;;;0.40;;
12585;SDS011;6358;50.760;0.282;2022-08-25T15:55:18;0.40;;;0.40;;
12585;SDS011;6358;50.760;0.282;2022-08-25T15:57:44;0.50;;;0.50;;
12585;SDS011;6358;50.760;0.282;2022-08-25T16:00:12;0.38;;;0.38;;
12585;SDS011;6358;50.760;0.282;2022-08-25T16:02:38;0.50;;;0.50;;
12585;SDS011;6358;50.760;0.282;2022-08-25T16:05:07;0.40;;;0.40;;
12585;SDS011;6358;50.760;0.282;2022-08-25T16:07:35;0.73;;;0.50;;
12585;SDS011;6358;50.760;0.282;2022-08-25T16:10:01;0.68;;;0.30;;
12585;SDS011;6358;50.760;0.282;2022-08-25T16:12:27;0.98;;;0.52;;
12585;SDS011;6358;50.760;0.282;2022-08-25T16:14:53;0.30;;;0.30;;
12585;SDS011;6358;50.760;0.282;2022-08-25T16:17:20;0.55;;;0.55;;
12585;SDS011;6358;50.760;0.282;2022-08-25T16:19:46;0.50;;;0.50;;
12585;SDS011;6358;50.760;0.282;2022-08-25T16:22:13;0.68;;;0.57;;
12585;SDS011;6358;50.760;0.282;2022-08-25T16:24:40;0.50;;;0.50;;
12585;SDS011;6358;50.760;0.282;2022-08-25T16:27:08;0.52;;;0.52;;
12585;SDS011;6358;50.760;0.282;2022-08-25T16:29:35;0.50;;;0.50;;
12585;SDS011;6358;50.760;0.282;2022-08-25T16:32:03;0.60;;;0.60;;
12585;SDS011;6358;50.760;0.282;2022-08-25T16:34:30;0.50;;;0.50;;
12585;SDS011;6358;50.760;0.282;2022-08-25T16:36:56;0.73;;;0.73;;
12585;SDS011;6358;50.760;0.282;2022-08-25T16:39:22;0.65;;;0.63;;
12585;SDS011;6358;50.760;0.282;2022-08-25T16:41:48;0.70;;;0.70;;
12585;SDS011;6358;50.760;0.282;2022-08-25T16:44:16;0.80;;;0.80;;
12585;SDS011;6358;50.760;0.282;2022-08-25T16:46:42;1.30;;;0.75;;
12585;SDS011;6358;50.760;0.282;2022-08-25T16:49:09;0.60;;;0.60;;
12585;SDS011;6358;50.760;0.282;2022-08-25T16:51:37;0.90;;;0.90;;
12585;SDS011;6358;50.760;0.282;2022-08-25T16:54:03;1.67;;;1.20;;
12585;SDS011;6358;50.760;0.282;2022-08-25T16:56:48;1.10;;;1.10;;